Time;durP1;ratioP1;P1;durP2;ratioP2;P2;SDS_P1;SDS_P2;PMS_P1;PMS_P2;Temp;Humidity;BMP_temperature;BMP_pressure;BME280_temperature;BME280_humidity;BME280_pressure;Samples;Min_cycle;Max_cycle;Signal;HPM_P1;HPM_P2
2022/03/14 00:00:28;;;;;;;1.60;1.10;;;11.50;99.90;;;;;;4959116;28;20199;-56
2022/03/14 00:02:55;;;;;;;1.43;1.13;;;11.40;99.90;;;;;;4958112;28;20246;-55
2022/03/14 00:05:24;;;;;;;1.17;1.00;;;11.50;99.90;;;;;;4960072;28;20293;-55
2022/03/14 00:07:51;;;;;;;1.10;1.00;;;11.40;99.90;;;;;;4957383;28;20507;-55
2022/03/14 00:10:18;;;;;;;1.00;0.87;;;11.50;99.90;;;;;;4960905;28;20228;-55
2022/03/14 00:12:48;;;;;;;2.10;1.30;;;11.50;99.90;;;;;;4959079;28;20258;-57
2022/03/14 00:15:16;;;;;;;1.30;1.03;;;11.40;99.90;;;;;;4960687;28;20293;-54
2022/03/14 00:17:47;;;;;;;1.47;1.10;;;11.40;99.90;;;;;;4959848;28;20245;-55
2022/03/14 00:20:15;;;;;;;2.20;1.10;;;11.40;99.90;;;;;;4959420;28;20249;-55
2022/03/14 00:22:44;;;;;;;1.70;1.40;;;11.40;99.90;;;;;;4958734;28;20699;-57
2022/03/14 00:25:11;;;;;;;1.30;1.17;;;11.30;99.90;;;;;;4960617;28;20305;-54
2022/03/14 00:27:38;;;;;;;1.10;1.00;;;11.40;99.90;;;;;;4958045;28;21877;-55
2022/03/14 00:30:10;;;;;;;2.00;1.20;;;11.40;99.90;;;;;;4957680;28;20221;-55
2022/03/14 00:32:38;;;;;;;2.93;1.10;;;11.30;99.90;;;;;;4958870;28;20215;-54
2022/03/14 00:35:09;;;;;;;1.23;1.10;;;11.20;99.90;;;;;;4959757;28;20415;-55
2022/03/14 00:37:40;;;;;;;1.30;1.07;;;11.20;99.90;;;;;;4957327;28;20305;-54
2022/03/14 00:40:09;;;;;;;1.80;1.10;;;11.20;99.90;;;;;;4959668;28;20488;-55
2022/03/14 00:42:36;;;;;;;1.33;1.23;;;11.20;99.90;;;;;;4958986;28;20257;-55
2022/03/14 00:45:03;;;;;;;2.57;1.83;;;11.10;99.90;;;;;;4961545;28;20730;-55
2022/03/14 00:47:31;;;;;;;2.07;1.50;;;11.10;99.90;;;;;;4958591;28;20243;-55
2022/03/14 00:49:57;;;;;;;2.00;1.47;;;11.10;99.90;;;;;;4958083;28;20259;-56
2022/03/14 00:52:24;;;;;;;1.60;1.20;;;11.20;99.90;;;;;;4959688;28;20238;-55
2022/03/14 00:54:51;;;;;;;1.30;1.20;;;11.20;99.90;;;;;;4960841;28;20672;-55
2022/03/14 00:57:18;;;;;;;1.80;1.60;;;11.10;99.90;;;;;;4957963;28;20246;-54
2022/03/14 00:59:44;;;;;;;1.70;1.50;;;11.20;99.90;;;;;;4959156;28;20235;-55
2022/03/14 01:02:11;;;;;;;5.63;1.57;;;11.20;99.90;;;;;;4957265;28;20281;-57
2022/03/14 01:04:38;;;;;;;2.20;1.27;;;11.20;99.90;;;;;;4956999;28;20212;-55
2022/03/14 01:07:05;;;;;;;1.37;1.27;;;11.20;99.90;;;;;;4959488;28;20279;-55
2022/03/14 01:09:33;;;;;;;1.50;1.30;;;11.20;99.90;;;;;;4958650;28;20237;-56
2022/03/14 01:12:02;;;;;;;2.30;1.53;;;11.00;99.90;;;;;;4959869;28;20691;-55
2022/03/14 01:14:28;;;;;;;1.77;1.47;;;11.00;99.90;;;;;;4957347;28;20199;-55
2022/03/14 01:16:55;;;;;;;2.40;1.80;;;11.00;99.90;;;;;;4955962;28;20227;-55
2022/03/14 01:19:22;;;;;;;2.23;1.70;;;10.80;99.90;;;;;;4955345;28;20369;-55
2022/03/14 01:21:49;;;;;;;2.30;1.63;;;10.80;99.90;;;;;;4959129;28;20288;-55
2022/03/14 01:24:17;;;;;;;1.93;1.70;;;10.80;99.90;;;;;;4957872;28;20269;-55
2022/03/14 01:26:45;;;;;;;1.97;1.63;;;10.70;99.90;;;;;;4958283;28;20571;-54
2022/03/14 01:29:11;;;;;;;2.47;2.07;;;10.80;99.90;;;;;;4957345;28;20228;-54
2022/03/14 01:31:38;;;;;;;2.27;1.70;;;10.80;99.90;;;;;;4956523;28;20654;-56
2022/03/14 01:34:06;;;;;;;1.83;1.43;;;10.80;99.90;;;;;;4958231;28;20240;-55
2022/03/14 01:36:33;;;;;;;1.90;1.70;;;10.70;99.90;;;;;;4959220;28;20302;-55
2022/03/14 01:39:00;;;;;;;3.60;1.80;;;10.70;99.90;;;;;;4956055;28;20330;-55
2022/03/14 01:41:28;;;;;;;2.00;1.80;;;10.80;99.90;;;;;;4957423;28;20220;-55
2022/03/14 01:43:56;;;;;;;3.07;2.00;;;10.80;99.90;;;;;;4956182;28;20583;-55
2022/03/14 01:46:23;;;;;;;2.20;2.00;;;10.70;99.90;;;;;;4956234;28;20397;-54
2022/03/14 01:48:51;;;;;;;2.47;1.80;;;10.70;99.90;;;;;;4956783;28;20207;-55
2022/03/14 01:51:20;;;;;;;2.40;2.03;;;10.70;99.90;;;;;;4957720;28;20344;-55
2022/03/14 01:53:47;;;;;;;2.10;1.90;;;10.70;99.90;;;;;;4957236;28;20208;-54
2022/03/14 01:56:14;;;;;;;2.37;2.03;;;10.80;99.90;;;;;;4958318;28;20376;-57
2022/03/14 01:58:41;;;;;;;2.40;1.97;;;10.80;99.90;;;;;;4959162;28;20708;-57
2022/03/14 02:01:09;;;;;;;2.63;2.17;;;10.90;99.90;;;;;;4957501;28;20744;-56
2022/03/14 02:03:36;;;;;;;3.47;2.17;;;10.80;99.90;;;;;;4957653;28;20248;-55
2022/03/14 02:06:03;;;;;;;2.37;1.93;;;10.70;99.90;;;;;;4959593;28;20289;-55
2022/03/14 02:08:30;;;;;;;2.10;1.80;;;10.70;99.90;;;;;;4959962;28;20755;-55
2022/03/14 02:10:57;;;;;;;2.23;1.97;;;10.70;99.90;;;;;;4956311;28;20212;-55
2022/03/14 02:13:25;;;;;;;3.03;2.33;;;10.70;99.90;;;;;;4958965;28;20275;-55
2022/03/14 02:15:52;;;;;;;2.40;1.90;;;10.70;99.90;;;;;;4958410;28;20661;-55
2022/03/14 02:18:19;;;;;;;2.07;1.87;;;10.70;99.90;;;;;;4954355;28;20683;-55
2022/03/14 02:20:46;;;;;;;2.63;2.20;;;10.70;99.90;;;;;;4957134;28;20211;-57
2022/03/14 02:23:13;;;;;;;2.53;2.10;;;10.70;99.90;;;;;;4958208;28;20754;-56
2022/03/14 02:25:51;;;;;;;2.20;1.90;;;10.80;99.90;;;;;;4956584;28;20238;-54
2022/03/14 02:28:21;;;;;;;2.57;2.07;;;10.80;99.90;;;;;;4958607;28;20695;-55
2022/03/14 02:30:52;;;;;;;3.13;2.10;;;10.70;99.90;;;;;;4962372;28;20300;-55
2022/03/14 02:33:20;;;;;;;2.77;2.20;;;10.70;99.90;;;;;;4960129;28;20627;-55
2022/03/14 02:35:47;;;;;;;3.10;2.10;;;10.70;99.90;;;;;;4961954;28;20203;-54
2022/03/14 02:38:16;;;;;;;3.27;2.17;;;10.70;99.90;;;;;;4960835;28;20272;-55
2022/03/14 02:40:46;;;;;;;4.10;1.93;;;10.60;99.90;;;;;;4961559;28;20674;-55
2022/03/14 02:43:15;;;;;;;2.67;2.07;;;10.60;99.90;;;;;;4960150;28;20235;-58
2022/03/14 02:45:47;;;;;;;2.20;2.00;;;10.60;99.90;;;;;;4961129;28;20263;-56
2022/03/14 02:48:14;;;;;;;2.77;2.13;;;10.70;99.90;;;;;;4958602;28;20359;-56
2022/03/14 02:50:42;;;;;;;2.77;2.07;;;10.60;99.90;;;;;;4957135;28;20228;-56
2022/03/14 02:53:13;;;;;;;2.30;1.90;;;10.60;99.90;;;;;;4961789;28;20293;-56
2022/03/14 02:55:40;;;;;;;2.33;2.10;;;10.60;99.90;;;;;;4957688;28;20219;-56
2022/03/14 02:58:07;;;;;;;2.10;1.90;;;10.50;99.90;;;;;;4960684;28;20306;-56
2022/03/14 03:00:37;;;;;;;2.27;2.07;;;10.50;99.90;;;;;;4959682;28;20234;-56
2022/03/14 03:03:06;;;;;;;2.73;2.00;;;10.50;99.90;;;;;;4956764;28;20223;-55
2022/03/14 03:05:35;;;;;;;2.80;2.23;;;10.50;99.90;;;;;;4961429;28;20215;-55
2022/03/14 03:08:04;;;;;;;2.80;1.90;;;10.50;99.90;;;;;;4960841;28;20309;-54
2022/03/14 03:10:34;;;;;;;2.50;2.17;;;10.50;99.90;;;;;;4960734;28;20207;-55
2022/03/14 03:13:02;;;;;;;2.10;1.90;;;10.50;99.90;;;;;;4960456;28;20676;-55
2022/03/14 03:15:30;;;;;;;2.33;2.03;;;10.40;99.90;;;;;;4960929;28;20723;-55
2022/03/14 03:17:57;;;;;;;3.00;2.37;;;10.40;99.90;;;;;;4959237;28;20295;-55
2022/03/14 03:20:25;;;;;;;3.83;2.60;;;10.40;99.90;;;;;;4958648;28;20649;-55
2022/03/14 03:22:52;;;;;;;2.40;2.20;;;10.40;99.90;;;;;;4960887;28;20221;-55
2022/03/14 03:25:19;;;;;;;2.43;2.13;;;10.40;99.90;;;;;;4961519;28;20208;-55
2022/03/14 03:27:46;;;;;;;2.50;2.23;;;10.30;99.90;;;;;;4960519;28;20307;-55
2022/03/14 03:30:13;;;;;;;2.47;2.27;;;10.40;99.90;;;;;;4961061;28;20209;-55
2022/03/14 03:32:40;;;;;;;2.33;1.93;;;10.40;99.90;;;;;;4959239;28;20616;-55
2022/03/14 03:35:07;;;;;;;2.50;2.30;;;10.20;99.90;;;;;;4957989;28;20292;-54
2022/03/14 03:37:34;;;;;;;2.57;2.37;;;10.20;99.90;;;;;;4961376;28;20235;-55
2022/03/14 03:40:02;;;;;;;3.00;2.60;;;10.20;99.90;;;;;;4960004;28;20696;-57
2022/03/14 03:42:29;;;;;;;3.07;2.67;;;10.10;99.90;;;;;;4961571;28;20204;-56
2022/03/14 03:44:56;;;;;;;2.97;2.60;;;10.00;99.90;;;;;;4960584;28;21055;-56
2022/03/14 03:47:24;;;;;;;4.93;2.70;;;10.00;99.90;;;;;;4961504;28;20240;-55
2022/03/14 03:49:51;;;;;;;3.17;2.83;;;10.00;99.90;;;;;;4960048;28;20962;-55
2022/03/14 03:52:18;;;;;;;3.80;3.43;;;10.00;99.90;;;;;;4960274;28;20743;-55
2022/03/14 03:54:44;;;;;;;3.87;3.47;;;9.90;99.90;;;;;;4961102;28;20620;-55
2022/03/14 03:57:12;;;;;;;3.63;3.20;;;9.80;99.90;;;;;;4962464;28;20727;-55
2022/03/14 03:59:40;;;;;;;4.17;3.63;;;9.70;99.90;;;;;;4959487;28;20212;-55
2022/03/14 04:02:08;;;;;;;4.63;4.13;;;9.50;99.90;;;;;;4958728;28;20199;-55
2022/03/14 04:04:37;;;;;;;4.83;3.83;;;9.40;99.90;;;;;;4958240;28;20290;-55
2022/03/14 04:07:08;;;;;;;6.67;4.47;;;9.40;99.90;;;;;;4960099;28;20295;-57
2022/03/14 04:09:35;;;;;;;5.23;4.73;;;9.30;99.90;;;;;;4957876;28;20296;-56
2022/03/14 04:12:02;;;;;;;4.77;4.27;;;9.30;99.90;;;;;;4960208;28;20234;-55
2022/03/14 04:14:30;;;;;;;5.40;4.63;;;9.30;99.90;;;;;;4959598;28;20204;-55
2022/03/14 04:16:59;;;;;;;4.83;4.33;;;9.30;99.90;;;;;;4958798;28;20297;-55
2022/03/14 04:19:29;;;;;;;5.50;4.23;;;9.30;99.90;;;;;;4956547;28;20300;-55
2022/03/14 04:21:56;;;;;;;6.17;4.93;;;9.30;99.90;;;;;;4960999;28;20201;-56
2022/03/14 04:24:24;;;;;;;5.60;5.00;;;9.30;99.90;;;;;;4959350;28;20680;-57
2022/03/14 04:26:51;;;;;;;5.77;4.80;;;9.40;99.90;;;;;;4956869;28;20205;-55
2022/03/14 04:29:18;;;;;;;6.50;5.13;;;9.40;99.90;;;;;;4958748;28;20230;-55
2022/03/14 04:31:45;;;;;;;4.77;4.20;;;9.40;99.90;;;;;;4958737;28;20269;-56
2022/03/14 04:34:12;;;;;;;6.30;5.13;;;9.40;99.90;;;;;;4958536;28;20210;-55
2022/03/14 04:36:39;;;;;;;7.37;4.43;;;9.40;99.90;;;;;;4960344;28;20707;-54
2022/03/14 04:39:06;;;;;;;6.73;4.77;;;9.40;99.90;;;;;;4959028;28;20279;-54
2022/03/14 04:41:35;;;;;;;6.60;4.77;;;9.40;99.90;;;;;;4959255;28;20613;-54
2022/03/14 04:44:02;;;;;;;7.43;5.53;;;9.40;99.90;;;;;;4959296;28;20225;-54
2022/03/14 04:46:29;;;;;;;6.67;4.83;;;9.50;99.90;;;;;;4959299;28;20199;-55
2022/03/14 04:48:56;;;;;;;6.13;5.40;;;9.50;99.90;;;;;;4957282;28;20261;-57
2022/03/14 04:51:23;;;;;;;6.47;5.03;;;9.40;99.90;;;;;;4958660;28;20233;-56
2022/03/14 04:53:50;;;;;;;7.67;5.67;;;9.40;99.90;;;;;;4960269;28;20280;-55
2022/03/14 04:56:16;;;;;;;5.77;5.17;;;9.40;99.90;;;;;;4959444;28;20281;-55
2022/03/14 04:58:43;;;;;;;6.17;5.43;;;9.40;99.90;;;;;;4958410;28;20201;-55
2022/03/14 05:01:10;;;;;;;6.67;5.37;;;9.40;99.90;;;;;;4957278;28;20204;-54
2022/03/14 05:03:37;;;;;;;7.23;5.53;;;9.40;99.90;;;;;;4972671;28;20216;-57
2022/03/14 05:06:04;;;;;;;5.83;5.17;;;9.40;99.90;;;;;;4960344;28;20668;-55
2022/03/14 05:08:31;;;;;;;7.00;5.63;;;9.40;99.90;;;;;;4959240;28;20252;-56
2022/03/14 05:10:58;;;;;;;8.27;5.73;;;9.50;99.90;;;;;;4958462;28;20207;-55
2022/03/14 05:13:25;;;;;;;6.87;5.33;;;9.40;99.90;;;;;;4958744;28;20272;-55
2022/03/14 05:15:52;;;;;;;6.87;5.07;;;9.40;99.90;;;;;;4960090;28;20656;-55
2022/03/14 05:18:19;;;;;;;8.33;6.60;;;9.40;99.90;;;;;;4957525;28;20209;-55
2022/03/14 05:20:46;;;;;;;7.87;6.23;;;9.30;99.90;;;;;;4958514;28;20616;-54
2022/03/14 05:23:13;;;;;;;8.20;5.57;;;9.30;99.90;;;;;;4960342;28;20234;-55
2022/03/14 05:25:39;;;;;;;7.03;5.80;;;9.30;99.90;;;;;;4960032;28;20238;-55
2022/03/14 05:28:06;;;;;;;7.23;5.83;;;9.30;99.90;;;;;;4957668;28;20244;-55
2022/03/14 05:30:33;;;;;;;8.60;6.23;;;9.30;99.90;;;;;;4957499;28;20195;-55
2022/03/14 05:33:00;;;;;;;8.23;6.50;;;9.30;99.90;;;;;;4957184;28;20310;-55
2022/03/14 05:35:26;;;;;;;7.47;5.80;;;9.20;99.90;;;;;;4973865;28;20252;-57
2022/03/14 05:37:53;;;;;;;9.40;6.30;;;9.20;99.90;;;;;;4959123;28;20229;-55
2022/03/14 05:40:20;;;;;;;9.40;7.47;;;9.20;99.90;;;;;;4959945;28;20240;-55
2022/03/14 05:42:49;;;;;;;9.03;6.83;;;9.20;99.90;;;;;;4958798;28;20287;-56
2022/03/14 05:45:17;;;;;;;11.73;7.20;;;9.20;99.90;;;;;;4959791;28;21582;-56
2022/03/14 05:47:45;;;;;;;11.30;7.30;;;9.10;99.90;;;;;;4955630;28;20285;-57
2022/03/14 05:50:12;;;;;;;7.37;6.33;;;9.20;99.90;;;;;;4956722;28;20281;-55
2022/03/14 05:52:39;;;;;;;7.33;5.90;;;9.10;99.90;;;;;;4958539;28;20283;-56
2022/03/14 05:55:06;;;;;;;8.00;6.47;;;9.10;99.90;;;;;;4958927;28;20287;-54
2022/03/14 05:57:33;;;;;;;7.70;6.43;;;9.10;99.90;;;;;;4972567;28;20207;-55
2022/03/14 06:00:01;;;;;;;9.80;6.40;;;9.10;99.90;;;;;;4957616;28;20387;-55
2022/03/14 06:02:28;;;;;;;7.83;7.03;;;9.10;99.90;;;;;;4956229;28;20203;-55
2022/03/14 06:04:55;;;;;;;8.90;6.20;;;9.00;99.90;;;;;;4961940;28;20227;-55
2022/03/14 06:07:22;;;;;;;10.30;6.63;;;9.10;99.90;;;;;;4963058;28;20601;-57
2022/03/14 06:09:49;;;;;;;8.90;7.33;;;9.00;99.90;;;;;;4962367;28;20198;-57
2022/03/14 06:12:27;;;;;;;10.17;7.27;;;9.10;99.90;;;;;;4962851;28;20241;-56
2022/03/14 06:14:54;;;;;;;9.50;7.03;;;9.10;99.90;;;;;;4963736;28;20309;-55
2022/03/14 06:17:21;;;;;;;9.50;7.33;;;9.10;99.90;;;;;;4977750;28;20609;-58
2022/03/14 06:19:49;;;;;;;8.23;7.27;;;9.10;99.90;;;;;;4959195;28;20930;-56
2022/03/14 06:22:18;;;;;;;10.03;7.23;;;9.10;99.90;;;;;;4962226;28;20241;-56
2022/03/14 06:24:47;;;;;;;9.93;7.60;;;9.10;99.90;;;;;;4962016;28;20305;-57
2022/03/14 06:27:15;;;;;;;13.30;8.67;;;9.10;99.90;;;;;;4963571;28;20332;-56
2022/03/14 06:29:43;;;;;;;10.10;8.33;;;9.10;99.90;;;;;;4959571;28;20677;-56
2022/03/14 06:32:10;;;;;;;13.17;9.03;;;9.10;99.90;;;;;;4961433;28;20293;-56
2022/03/14 06:34:38;;;;;;;14.40;8.73;;;9.20;99.90;;;;;;4959637;28;20278;-56
2022/03/14 06:37:08;;;;;;;10.90;8.17;;;9.20;99.90;;;;;;4977628;28;20286;-57
2022/03/14 06:39:39;;;;;;;13.43;9.73;;;9.20;99.90;;;;;;4961527;28;20248;-56
2022/03/14 06:42:09;;;;;;;11.33;7.80;;;9.10;99.90;;;;;;4962850;28;20628;-56
2022/03/14 06:44:39;;;;;;;12.93;9.00;;;9.20;99.90;;;;;;4962262;28;20312;-55
2022/03/14 06:47:10;;;;;;;11.33;9.17;;;9.20;99.90;;;;;;4959838;28;20304;-57
2022/03/14 06:49:38;;;;;;;12.53;8.57;;;9.20;99.90;;;;;;4956096;28;20285;-56
2022/03/14 06:52:05;;;;;;;10.70;8.00;;;9.20;99.90;;;;;;4957226;28;20208;-55
2022/03/14 06:54:32;;;;;;;12.13;9.33;;;9.30;99.90;;;;;;4957981;28;20242;-56
2022/03/14 06:56:59;;;;;;;12.20;9.80;;;9.20;99.90;;;;;;4959646;28;20747;-56
2022/03/14 06:59:26;;;;;;;11.40;8.93;;;9.20;99.90;;;;;;4959972;28;20210;-56
2022/03/14 07:01:53;;;;;;;16.37;9.80;;;9.20;99.90;;;;;;4958789;28;20254;-55
2022/03/14 07:04:20;;;;;;;13.80;9.73;;;9.10;99.90;;;;;;4957475;28;20220;-57
2022/03/14 07:06:46;;;;;;;11.67;9.47;;;9.10;99.90;;;;;;4960252;28;20405;-56
2022/03/14 07:09:13;;;;;;;20.70;11.20;;;9.10;99.90;;;;;;4975326;28;20204;-56
2022/03/14 07:11:40;;;;;;;15.43;10.20;;;9.20;99.90;;;;;;4962501;28;20300;-55
2022/03/14 07:14:08;;;;;;;12.53;9.60;;;9.10;99.90;;;;;;4950331;28;20661;-55
2022/03/14 07:16:34;;;;;;;11.03;9.07;;;9.10;99.90;;;;;;4954105;28;20689;-55
2022/03/14 07:19:02;;;;;;;13.13;9.50;;;9.20;99.90;;;;;;4953915;28;20228;-56
2022/03/14 07:21:28;;;;;;;11.23;9.50;;;9.20;99.90;;;;;;4956031;28;20690;-56
2022/03/14 07:23:56;;;;;;;15.00;10.27;;;9.20;99.90;;;;;;4959258;28;20254;-56
2022/03/14 07:26:23;;;;;;;13.40;9.73;;;9.20;99.90;;;;;;4959636;28;20246;-56
2022/03/14 07:28:50;;;;;;;15.30;10.80;;;9.20;99.90;;;;;;4957704;28;20604;-56
2022/03/14 07:31:18;;;;;;;16.60;10.83;;;9.30;99.90;;;;;;4959069;28;20205;-56
2022/03/14 07:33:45;;;;;;;14.93;11.10;;;9.30;99.90;;;;;;4956993;28;20213;-55
2022/03/14 07:36:13;;;;;;;12.50;10.13;;;9.30;99.90;;;;;;4962916;28;20830;-57
2022/03/14 07:38:39;;;;;;;16.00;11.17;;;9.40;99.90;;;;;;4953801;28;20269;-56
2022/03/14 07:41:08;;;;;;;16.10;11.30;;;9.50;99.90;;;;;;4958285;28;20235;-55
2022/03/14 07:43:35;;;;;;;17.13;11.20;;;9.50;99.90;;;;;;4958480;28;20234;-55
2022/03/14 07:46:02;;;;;;;13.87;10.30;;;9.40;99.90;;;;;;4957615;28;20248;-57
2022/03/14 07:48:30;;;;;;;15.67;12.03;;;9.50;99.90;;;;;;4959604;28;20222;-56
2022/03/14 07:50:57;;;;;;;15.30;11.17;;;9.40;99.90;;;;;;4958149;28;20716;-55
2022/03/14 07:53:25;;;;;;;15.43;10.97;;;9.40;99.90;;;;;;4959895;28;20657;-55
2022/03/14 07:55:52;;;;;;;16.67;11.47;;;9.40;99.90;;;;;;4958470;28;20319;-55
2022/03/14 07:58:20;;;;;;;17.53;11.53;;;9.40;99.90;;;;;;4957443;28;20579;-56
2022/03/14 08:00:46;;;;;;;14.17;11.87;;;9.50;99.90;;;;;;4974176;28;20730;-55
2022/03/14 08:03:15;;;;;;;20.37;12.50;;;9.50;99.90;;;;;;4961164;28;20202;-55
2022/03/14 08:05:44;;;;;;;15.50;11.87;;;9.60;99.90;;;;;;4961604;28;20723;-57
2022/03/14 08:08:11;;;;;;;19.80;12.83;;;9.50;99.90;;;;;;4960984;28;20290;-56
2022/03/14 08:10:41;;;;;;;16.90;12.37;;;9.60;99.90;;;;;;4959775;28;20295;-56
2022/03/14 08:13:08;;;;;;;17.17;12.37;;;9.60;99.90;;;;;;4961761;28;20581;-56
2022/03/14 08:15:36;;;;;;;17.83;11.63;;;9.60;99.90;;;;;;4961437;28;20751;-57
2022/03/14 08:18:07;;;;;;;18.23;12.53;;;9.70;99.90;;;;;;4958855;28;20208;-57
2022/03/14 08:20:36;;;;;;;15.43;11.87;;;9.60;99.90;;;;;;4959979;28;20221;-57
2022/03/14 08:23:03;;;;;;;16.63;12.97;;;9.80;99.90;;;;;;4960755;28;20273;-56
2022/03/14 08:25:32;;;;;;;18.37;12.47;;;9.60;99.90;;;;;;4959467;28;20743;-56
2022/03/14 08:27:59;;;;;;;17.80;13.10;;;9.60;99.90;;;;;;4958976;28;20250;-55
2022/03/14 08:30:27;;;;;;;17.57;11.93;;;9.70;99.90;;;;;;4959594;28;20223;-56
2022/03/14 08:32:56;;;;;;;15.77;11.57;;;9.70;99.90;;;;;;4957408;28;20212;-56
2022/03/14 08:35:23;;;;;;;18.13;12.67;;;9.70;99.90;;;;;;4960224;28;20631;-55
2022/03/14 08:37:52;;;;;;;16.73;12.10;;;9.80;99.90;;;;;;4960308;28;20263;-55
2022/03/14 08:40:22;;;;;;;19.67;12.37;;;9.80;99.90;;;;;;4960215;28;20326;-55
2022/03/14 08:42:51;;;;;;;19.00;13.17;;;9.80;99.90;;;;;;4959679;28;20570;-55
2022/03/14 08:45:19;;;;;;;18.27;12.90;;;9.80;99.90;;;;;;4960310;28;20663;-55
2022/03/14 08:47:53;;;;;;;16.13;12.43;;;9.90;99.90;;;;;;5032314;28;20601;-56
2022/03/14 08:50:21;;;;;;;19.67;12.70;;;9.90;99.90;;;;;;5031631;28;20348;-55
2022/03/14 08:52:48;;;;;;;21.17;13.27;;;10.10;99.90;;;;;;5031068;28;20212;-55
2022/03/14 08:55:15;;;;;;;16.93;11.80;;;10.20;99.90;;;;;;5030887;28;20231;-55
2022/03/14 08:57:42;;;;;;;16.43;11.57;;;10.20;99.90;;;;;;5028330;28;20621;-55
2022/03/14 09:00:11;;;;;;;20.30;12.33;;;10.00;99.90;;;;;;5025823;28;20209;-55
2022/03/14 09:02:38;;;;;;;15.73;11.93;;;10.20;99.90;;;;;;5023303;28;20261;-54
2022/03/14 09:05:06;;;;;;;19.80;11.73;;;10.00;99.90;;;;;;5023054;28;20520;-59
2022/03/14 09:07:32;;;;;;;17.20;11.20;;;10.10;99.90;;;;;;4998535;28;20276;-56
2022/03/14 09:10:08;;;;;;;15.83;11.47;;;10.10;99.90;;;;;;4991692;28;20223;-55
2022/03/14 09:12:37;;;;;;;17.30;10.70;;;10.00;99.90;;;;;;4992592;28;20640;-55
2022/03/14 09:15:05;;;;;;;15.60;10.87;;;10.00;99.90;;;;;;4990851;28;20206;-55
2022/03/14 09:17:32;;;;;;;18.80;11.43;;;10.10;99.90;;;;;;4992046;28;20571;-55
2022/03/14 09:20:03;;;;;;;20.07;10.63;;;10.20;99.90;;;;;;4990867;28;20238;-57
2022/03/14 09:22:30;;;;;;;16.53;10.83;;;10.20;99.90;;;;;;4991313;28;20209;-55
2022/03/14 09:24:57;;;;;;;18.50;11.00;;;10.40;99.90;;;;;;4992672;28;20542;-55
2022/03/14 09:27:25;;;;;;;16.27;10.77;;;10.30;99.90;;;;;;4991533;28;20351;-55
2022/03/14 09:29:52;;;;;;;19.07;11.40;;;10.40;99.90;;;;;;4989205;28;20261;-55
2022/03/14 09:32:20;;;;;;;13.47;11.13;;;10.30;99.90;;;;;;4989479;28;20708;-54
2022/03/14 09:34:46;;;;;;;18.80;12.07;;;10.30;99.90;;;;;;4991786;28;20649;-56
2022/03/14 09:37:13;;;;;;;16.37;11.53;;;10.30;99.90;;;;;;4990106;28;20607;-55
2022/03/14 09:39:40;;;;;;;17.37;10.80;;;10.30;99.90;;;;;;4997574;28;21509;-56
2022/03/14 09:42:11;;;;;;;19.57;12.03;;;10.50;99.90;;;;;;4994305;28;20257;-55
2022/03/14 09:44:42;;;;;;;18.27;12.50;;;10.50;99.90;;;;;;4991440;28;20205;-55
2022/03/14 09:47:10;;;;;;;17.93;13.63;;;10.40;99.90;;;;;;4988945;28;20239;-55
2022/03/14 09:49:43;;;;;;;24.23;13.93;;;10.40;99.90;;;;;;4988219;28;20298;-55
2022/03/14 09:52:11;;;;;;;18.93;12.97;;;10.50;99.90;;;;;;4993266;28;20231;-55
2022/03/14 09:54:38;;;;;;;21.43;14.23;;;10.50;99.90;;;;;;4993477;28;20228;-55
2022/03/14 09:57:06;;;;;;;18.87;14.03;;;10.70;86.90;;;;;;4990305;28;20206;-56
2022/03/14 09:59:35;;;;;;;23.20;14.23;;;11.10;14.10;;;;;;4978330;28;20277;-57
2022/03/14 10:02:03;;;;;;;19.70;14.57;;;11.40;1.00;;;;;;4977471;28;20290;-55
2022/03/14 10:04:30;;;;;;;19.10;14.10;;;11.50;1.00;;;;;;4974662;28;20273;-55
2022/03/14 10:06:57;;;;;;;20.30;13.13;;;12.00;1.00;;;;;;4979502;28;20263;-55
2022/03/14 10:09:24;;;;;;;19.60;11.47;;;11.70;1.00;;;;;;4977764;28;20245;-55
2022/03/14 10:11:52;;;;;;;11.37;8.37;;;11.90;1.00;;;;;;4978038;28;20259;-55
2022/03/14 10:14:19;;;;;;;10.27;8.03;;;11.80;1.00;;;;;;4978795;28;20818;-57
2022/03/14 10:16:47;;;;;;;12.20;8.40;;;11.90;1.00;;;;;;4977515;28;20240;-55
2022/03/14 10:19:20;;;;;;;12.80;9.57;;;12.00;1.00;;;;;;4978336;28;20206;-55
2022/03/14 10:21:50;;;;;;;13.47;10.13;;;12.00;1.00;;;;;;4981055;28;20319;-56
2022/03/14 10:24:21;;;;;;;15.27;10.63;;;12.00;1.00;;;;;;4977226;28;20640;-56
2022/03/14 10:26:49;;;;;;;17.87;12.07;;;11.60;1.00;;;;;;4977629;28;20257;-55
2022/03/14 10:29:18;;;;;;;21.53;11.63;;;11.60;1.00;;;;;;4978911;28;20565;-55
2022/03/14 10:31:54;;;;;;;16.00;10.50;;;11.60;1.00;;;;;;4976566;28;20236;-54
2022/03/14 10:34:21;;;;;;;16.30;12.00;;;11.90;1.00;;;;;;4978844;28;20277;-56
2022/03/14 10:36:57;;;;;;;17.43;13.17;;;12.20;99.90;;;;;;4976945;28;20371;-56
2022/03/14 10:39:31;;;;;;;18.23;13.90;;;12.10;1.00;;;;;;4973595;28;20257;-55
2022/03/14 10:42:07;;;;;;;22.37;13.83;;;12.20;99.90;;;;;;4978436;28;20718;-54
2022/03/14 10:44:51;;;;;;;19.97;14.30;;;12.10;99.90;;;;;;4977183;28;20222;-56
2022/03/14 10:47:19;;;;;;;18.57;14.40;;;11.80;1.00;;;;;;4977440;28;20712;-55
2022/03/14 10:49:47;;;;;;;19.13;13.33;;;12.00;1.00;;;;;;4975886;28;20200;-57
2022/03/14 10:52:20;;;;;;;20.63;14.10;;;12.60;99.90;;;;;;4978373;28;20202;-56
2022/03/14 10:54:48;;;;;;;17.57;13.83;;;13.00;1.00;;;;;;4975418;28;20195;-55
2022/03/14 10:57:25;;;;;;;16.80;13.30;;;13.00;1.00;;;;;;4974562;28;20346;-55
2022/03/14 10:59:54;;;;;;;19.50;14.03;;;13.10;1.00;;;;;;4975735;28;20602;-55
2022/03/14 11:02:26;;;;;;;18.13;13.83;;;13.00;1.00;;;;;;4978573;28;20212;-55
2022/03/14 11:04:56;;;;;;;17.10;14.13;;;12.70;19.40;;;;;;4974462;28;20669;-54
2022/03/14 11:07:28;;;;;;;19.80;13.67;;;12.60;99.90;;;;;;4977303;28;20658;-54
2022/03/14 11:09:56;;;;;;;12.63;11.33;;;12.40;99.90;;;;;;4973332;28;20688;-54
2022/03/14 11:12:25;;;;;;;16.27;11.63;;;12.50;99.90;;;;;;4978200;28;20341;-54
2022/03/14 11:15:06;;;;;;;16.43;10.70;;;12.30;1.00;;;;;;4976303;28;20694;-55
2022/03/14 11:17:35;;;;;;;18.80;12.53;;;12.20;99.90;;;;;;4976364;28;20209;-55
2022/03/14 11:20:22;;;;;;;14.63;12.20;;;12.40;53.60;;;;;;4975457;28;20212;-55
2022/03/14 11:22:51;;;;;;;14.53;11.70;;;12.40;1.00;;;;;;4975250;28;20238;-54
2022/03/14 11:25:19;;;;;;;17.87;12.67;;;12.20;1.00;;;;;;4978047;28;20668;-54
2022/03/14 11:27:46;;;;;;;16.70;11.90;;;12.20;99.00;;;;;;4974016;28;20242;-55
2022/03/14 11:30:14;;;;;;;13.80;12.30;;;12.30;99.90;;;;;;4976470;28;20220;-54
2022/03/14 11:32:44;;;;;;;17.70;12.63;;;12.50;99.90;;;;;;4977790;28;20226;-55
2022/03/14 11:35:12;;;;;;;16.70;11.83;;;12.20;1.00;;;;;;4976394;28;20295;-54
2022/03/14 11:37:42;;;;;;;16.40;11.03;;;12.10;1.00;;;;;;4975812;28;20230;-55
2022/03/14 11:40:09;;;;;;;17.27;12.37;;;11.90;1.00;;;;;;4977148;28;20648;-55
2022/03/14 11:42:36;;;;;;;15.93;11.70;;;12.00;1.00;;;;;;4976113;28;20211;-55
2022/03/14 11:45:07;;;;;;;16.83;12.50;;;12.50;99.90;;;;;;4977378;28;20547;-55
2022/03/14 11:47:35;;;;;;;15.23;9.63;;;13.10;32.00;;;;;;4975008;28;20279;-55
2022/03/14 11:50:03;;;;;;;15.07;10.27;;;13.50;1.00;;;;;;4974937;28;20238;-55
2022/03/14 11:52:36;;;;;;;31.07;25.50;;;13.60;99.90;;;;;;4977055;28;20197;-54
2022/03/14 11:55:16;;;;;;;11.10;9.50;;;13.30;1.00;;;;;;4976986;28;20230;-55
2022/03/14 11:57:44;;;;;;;12.97;8.40;;;13.00;1.00;;;;;;4975351;28;20272;-54
2022/03/14 12:00:31;;;;;;;10.80;8.70;;;12.90;1.00;;;;;;4976036;28;20297;-54
2022/03/14 12:03:27;;;;;;;11.90;8.40;;;12.90;1.00;;;;;;4976166;28;20684;-54
2022/03/14 12:05:54;;;;;;;9.90;7.97;;;12.80;1.00;;;;;;4977775;28;20404;-54
2022/03/14 12:08:24;;;;;;;8.83;7.70;;;12.70;99.90;;;;;;4975729;28;20211;-56
2022/03/14 12:10:51;;;;;;;8.60;7.43;;;12.80;99.90;;;;;;4976759;28;20210;-54
2022/03/14 12:13:42;;;;;;;9.97;7.27;;;13.00;1.00;;;;;;4975739;28;20257;-54
2022/03/14 12:16:35;;;;;;;9.27;6.60;;;13.10;1.00;;;;;;4977973;28;20205;-54
2022/03/14 12:19:29;;;;;;;7.67;6.60;;;13.20;1.00;;;;;;4974780;28;20738;-54
2022/03/14 12:22:02;;;;;;;11.87;6.80;;;13.40;1.00;;;;;;4976381;28;20241;-55
2022/03/14 12:24:35;;;;;;;10.57;6.77;;;14.00;1.00;;;;;;4969090;28;20213;-55
2022/03/14 12:27:14;;;;;;;15.87;8.00;;;13.90;1.00;;;;;;4973140;28;20709;-59
2022/03/14 12:29:41;;;;;;;8.70;6.87;;;13.60;1.00;;;;;;4974989;28;20654;-55
2022/03/14 12:32:26;;;;;;;7.03;6.10;;;13.40;1.00;;;;;;4965822;28;20297;-55
2022/03/14 12:35:22;;;;;;;11.70;6.67;;;13.20;1.00;;;;;;4976792;28;20597;-55
2022/03/14 12:37:55;;;;;;;9.73;4.60;;;13.50;99.90;;;;;;4973192;28;20216;-55
2022/03/14 12:40:21;;;;;;;7.30;4.80;;;13.80;1.00;;;;;;4972798;28;20210;-56
2022/03/14 12:42:51;;;;;;;6.93;5.47;;;13.80;99.90;;;;;;4967642;28;20250;-56
2022/03/14 12:45:27;;;;;;;10.33;7.47;;;13.60;99.90;;;;;;4973109;28;20620;-55
2022/03/14 12:48:05;;;;;;;12.13;8.10;;;13.60;1.00;;;;;;4973416;28;20272;-56
2022/03/14 12:50:50;;;;;;;10.27;7.27;;;13.30;1.00;;;;;;4969300;28;20483;-55